createdAt,value
2023-02-05T00:01:21.530Z,19.67
2023-02-05T00:03:52.151Z,19.66
2023-02-05T00:06:22.250Z,19.66
2023-02-05T00:08:54.277Z,19.65
2023-02-05T00:11:25.369Z,19.64
2023-02-05T00:13:56.496Z,19.64
2023-02-05T00:16:28.475Z,19.64
2023-02-05T00:18:59.566Z,19.63
2023-02-05T00:21:30.642Z,19.63
2023-02-05T00:24:02.938Z,19.62
2023-02-05T00:26:33.557Z,19.61
2023-02-05T00:29:03.711Z,19.60
2023-02-05T00:31:34.495Z,19.61
2023-02-05T00:34:05.427Z,19.59
2023-02-05T00:36:36.008Z,19.59
2023-02-05T00:39:09.654Z,19.57
2023-02-05T00:41:40.552Z,19.57
2023-02-05T00:44:18.750Z,19.54
2023-02-05T00:46:49.928Z,19.54
2023-02-05T00:49:20.504Z,19.53
2023-02-05T00:51:50.663Z,19.54
2023-02-05T00:54:23.462Z,19.55
2023-02-05T00:56:53.963Z,19.55
2023-02-05T00:59:24.671Z,19.57
2023-02-05T01:01:55.229Z,19.56
2023-02-05T01:04:25.780Z,19.57
2023-02-05T01:06:56.918Z,19.58
2023-02-05T01:09:29.310Z,19.58
2023-02-05T01:12:00.007Z,19.58
2023-02-05T01:14:29.738Z,19.58
2023-02-05T01:17:00.305Z,19.58
2023-02-05T01:19:30.519Z,19.56
2023-02-05T01:22:01.078Z,19.56
2023-02-05T01:24:33.592Z,19.56
2023-02-05T01:27:04.225Z,19.55
2023-02-05T01:29:34.819Z,19.54
2023-02-05T01:32:04.888Z,19.56
2023-02-05T01:34:35.593Z,19.55
2023-02-05T01:37:06.149Z,19.55
2023-02-05T01:39:39.872Z,19.56
2023-02-05T01:42:23.173Z,19.58
2023-02-05T01:45:51.261Z,19.56
2023-02-05T01:48:32.735Z,19.54
2023-02-05T01:51:08.909Z,19.55
2023-02-05T01:53:41.045Z,19.56
2023-02-05T01:56:19.904Z,19.57
2023-02-05T01:58:57.347Z,19.59
2023-02-05T02:01:30.420Z,19.60
2023-02-05T02:04:05.584Z,19.60
2023-02-05T02:06:38.698Z,19.61
2023-02-05T02:09:09.982Z,19.61
2023-02-05T02:11:45.509Z,19.61
2023-02-05T02:14:17.769Z,19.59
2023-02-05T02:16:49.588Z,19.59
2023-02-05T02:19:40.554Z,19.59
2023-02-05T02:22:56.669Z,19.56
2023-02-05T02:26:05.137Z,19.54
2023-02-05T02:28:45.863Z,19.53
2023-02-05T02:31:26.206Z,19.52
2023-02-05T02:34:04.844Z,19.52
2023-02-05T02:36:45.559Z,19.50
2023-02-05T02:39:24.825Z,19.50
2023-02-05T02:42:00.106Z,19.49
2023-02-05T02:44:40.459Z,19.50
2023-02-05T02:47:16.828Z,19.49
2023-02-05T02:49:56.317Z,19.49
2023-02-05T02:52:29.239Z,19.50
2023-02-05T02:55:06.416Z,19.48
2023-02-05T02:57:40.200Z,19.50
2023-02-05T03:00:20.935Z,19.50
2023-02-05T03:02:56.345Z,19.49
2023-02-05T03:05:29.922Z,19.48
2023-02-05T03:08:10.724Z,19.48
2023-02-05T03:10:47.265Z,19.44
2023-02-05T03:13:18.511Z,19.43
2023-02-05T03:15:51.582Z,19.43
2023-02-05T03:18:23.052Z,19.43
2023-02-05T03:20:59.916Z,19.41
2023-02-05T03:23:31.818Z,19.41
2023-02-05T03:26:02.782Z,19.40
2023-02-05T03:28:33.484Z,19.40
2023-02-05T03:31:16.726Z,19.38
2023-02-05T03:34:01.402Z,19.34
2023-02-05T03:36:52.172Z,19.32
2023-02-05T03:39:36.882Z,19.30
2023-02-05T03:42:27.833Z,19.30
2023-02-05T03:45:22.246Z,19.28
2023-02-05T03:48:24.456Z,19.27
2023-02-05T03:51:09.656Z,19.27
2023-02-05T03:53:55.525Z,19.27
2023-02-05T03:56:32.400Z,19.27
2023-02-05T03:59:06.008Z,19.26
2023-02-05T04:01:37.935Z,19.25
2023-02-05T04:04:10.462Z,19.23
2023-02-05T04:06:41.143Z,19.23
2023-02-05T04:09:14.440Z,19.21
2023-02-05T04:11:45.622Z,19.21
2023-02-05T04:14:16.168Z,19.19
2023-02-05T04:16:46.857Z,19.19
2023-02-05T04:19:18.825Z,19.16
2023-02-05T04:21:49.334Z,19.14
2023-02-05T04:24:19.980Z,19.12
2023-02-05T04:26:51.745Z,19.13
2023-02-05T04:29:22.343Z,19.12
2023-02-05T04:31:52.567Z,19.13
2023-02-05T04:34:25.232Z,19.13
2023-02-05T04:36:56.486Z,19.13
2023-02-05T04:39:27.053Z,19.11
2023-02-05T04:41:57.853Z,19.12
2023-02-05T04:44:46.057Z,19.13
2023-02-05T04:47:16.647Z,19.11
2023-02-05T04:49:49.370Z,19.13
2023-02-05T04:52:19.349Z,19.14
2023-02-05T04:54:49.976Z,19.15
2023-02-05T04:57:20.660Z,19.15
2023-02-05T04:59:51.892Z,19.16
2023-02-05T05:02:25.257Z,19.16
2023-02-05T05:05:02.489Z,19.16
2023-02-05T05:07:34.493Z,19.15
2023-02-05T05:10:05.065Z,19.14
2023-02-05T05:12:35.691Z,19.16
2023-02-05T05:15:08.043Z,19.16
2023-02-05T05:17:39.466Z,19.20
2023-02-05T05:20:13.664Z,19.28
2023-02-05T05:22:43.814Z,19.40
2023-02-05T05:25:14.261Z,19.54
2023-02-05T05:27:44.962Z,19.70
2023-02-05T05:30:17.452Z,19.86
2023-02-05T05:32:48.546Z,20.04
2023-02-05T05:35:21.797Z,20.24
2023-02-05T05:37:53.613Z,20.38
2023-02-05T05:40:40.837Z,20.47
2023-02-05T05:43:32.078Z,20.49
2023-02-05T05:46:02.988Z,20.52
2023-02-05T05:48:33.844Z,20.61
2023-02-05T05:51:07.607Z,20.76
2023-02-05T05:53:38.265Z,20.93
2023-02-05T05:56:09.649Z,21.13
2023-02-05T05:58:40.666Z,21.24
2023-02-05T06:01:12.306Z,21.26
2023-02-05T06:03:43.162Z,21.27
2023-02-05T06:06:16.245Z,21.25
2023-02-05T06:08:47.388Z,21.28
2023-02-05T06:11:17.299Z,21.35
2023-02-05T06:13:48.354Z,21.49
2023-02-05T06:16:18.888Z,21.64
2023-02-05T06:18:49.200Z,21.77
2023-02-05T06:21:20.808Z,21.90
2023-02-05T06:23:51.359Z,22.05
2023-02-05T06:26:22.132Z,22.26
2023-02-05T06:28:52.610Z,22.46
2023-02-05T06:31:24.279Z,22.67
2023-02-05T06:33:55.244Z,22.87
2023-02-05T06:36:28.013Z,23.07
2023-02-05T06:38:58.637Z,23.26
2023-02-05T06:41:29.700Z,23.45
2023-02-05T06:43:59.791Z,23.66
2023-02-05T06:46:30.670Z,23.85
2023-02-05T06:49:01.353Z,24.02
2023-02-05T06:51:34.228Z,24.19
2023-02-05T06:54:04.953Z,24.60
2023-02-05T06:56:36.492Z,25.08
2023-02-05T06:59:07.103Z,25.56
2023-02-05T07:01:37.386Z,25.94
2023-02-05T07:04:08.320Z,26.40
2023-02-05T07:06:41.088Z,26.95
2023-02-05T07:09:10.989Z,27.48
2023-02-05T07:11:41.606Z,27.96
2023-02-05T07:14:12.286Z,28.36
2023-02-05T07:16:42.822Z,28.68
2023-02-05T07:19:14.064Z,28.88
2023-02-05T07:21:46.461Z,29.07
2023-02-05T07:24:17.910Z,29.27
2023-02-05T07:26:48.704Z,29.34
2023-02-05T07:29:19.320Z,29.42
2023-02-05T07:31:52.224Z,29.65
2023-02-05T07:34:23.577Z,29.73
2023-02-05T07:36:56.296Z,29.72
2023-02-05T07:39:28.510Z,29.67
2023-02-05T07:41:59.738Z,29.60
2023-02-05T07:44:30.478Z,29.52
2023-02-05T07:47:01.196Z,29.45
2023-02-05T07:49:31.878Z,29.36
2023-02-05T07:52:05.942Z,29.27
2023-02-05T07:54:36.320Z,29.17
2023-02-05T07:57:07.172Z,29.08
2023-02-05T07:59:38.436Z,29.01
2023-02-05T08:02:09.085Z,28.98
2023-02-05T08:04:39.701Z,28.93
2023-02-05T08:07:14.095Z,28.91
2023-02-05T08:09:44.824Z,28.90
2023-02-05T08:12:14.720Z,28.89
2023-02-05T08:14:45.545Z,28.86
2023-02-05T08:17:16.380Z,28.80
2023-02-05T08:19:46.457Z,28.73
2023-02-05T08:22:20.732Z,28.67
2023-02-05T08:24:51.343Z,28.63
2023-02-05T08:27:25.299Z,28.58
2023-02-05T08:29:56.275Z,28.51
2023-02-05T08:32:28.057Z,28.47
2023-02-05T08:34:59.297Z,28.45
2023-02-05T08:37:32.740Z,28.41
2023-02-05T08:40:03.344Z,28.35
2023-02-05T08:42:34.107Z,28.29
2023-02-05T08:45:09.259Z,28.20
2023-02-05T08:47:40.131Z,28.09
2023-02-05T08:50:11.477Z,28.00
2023-02-05T08:52:45.124Z,27.94
2023-02-05T08:55:17.251Z,27.88
2023-02-05T08:57:49.093Z,27.84
2023-02-05T09:00:21.447Z,27.80
2023-02-05T09:02:52.143Z,27.76
2023-02-05T09:05:22.555Z,27.71
2023-02-05T09:07:54.408Z,27.63
2023-02-05T09:10:25.538Z,27.54
2023-02-05T09:12:56.253Z,27.46
2023-02-05T09:15:26.943Z,27.37
2023-02-05T09:17:57.104Z,27.29
2023-02-05T09:20:27.543Z,27.22
2023-02-05T09:23:00.180Z,27.18
2023-02-05T09:25:35.241Z,27.13
2023-02-05T09:28:09.996Z,27.06
2023-02-05T09:30:41.876Z,26.97
2023-02-05T09:33:13.754Z,26.89
2023-02-05T09:35:45.729Z,26.81
2023-02-05T09:38:19.379Z,26.74
2023-02-05T09:41:00.043Z,26.66
2023-02-05T09:43:53.720Z,26.58
2023-02-05T09:46:39.630Z,26.51
2023-02-05T09:49:20.832Z,26.40
2023-02-05T09:51:59.051Z,26.32
2023-02-05T09:54:38.146Z,26.26
2023-02-05T09:57:33.165Z,26.21
2023-02-05T10:00:03.476Z,26.16
2023-02-05T10:02:45.570Z,26.12
2023-02-05T10:05:18.583Z,26.07
2023-02-05T10:08:06.119Z,26.03
2023-02-05T10:10:45.987Z,25.98
2023-02-05T10:13:37.568Z,25.88
2023-02-05T10:16:40.421Z,25.77
2023-02-05T10:19:49.475Z,25.70
2023-02-05T10:22:29.293Z,25.65
2023-02-05T10:26:02.276Z,25.56
2023-02-05T10:29:07.661Z,25.50
2023-02-05T10:31:48.860Z,25.46
2023-02-05T10:34:40.035Z,25.44
2023-02-05T10:37:19.627Z,25.42
2023-02-05T10:39:51.491Z,25.42
2023-02-05T10:42:33.903Z,25.41
2023-02-05T10:45:18.131Z,25.40
2023-02-05T10:48:26.269Z,25.38
2023-02-05T10:51:04.277Z,25.35
2023-02-05T10:53:36.694Z,25.33
2023-02-05T10:56:08.722Z,25.31
2023-02-05T10:58:53.506Z,25.29
2023-02-05T11:01:27.127Z,25.25
2023-02-05T11:04:02.904Z,25.22
2023-02-05T11:06:42.847Z,25.20
2023-02-05T11:09:34.631Z,25.17
2023-02-05T11:12:09.866Z,25.14
2023-02-05T11:14:47.093Z,25.13
2023-02-05T11:17:27.451Z,25.10
2023-02-05T11:20:01.237Z,25.06
2023-02-05T11:22:35.584Z,25.04
2023-02-05T11:25:18.501Z,24.99
2023-02-05T11:27:55.603Z,24.93
2023-02-05T11:30:51.542Z,24.89
2023-02-05T11:33:34.017Z,24.82
2023-02-05T11:36:08.472Z,24.80
2023-02-05T11:38:48.054Z,24.79
2023-02-05T11:41:31.401Z,24.75
2023-02-05T11:44:05.877Z,24.70
2023-02-05T11:46:47.988Z,24.66
2023-02-05T11:49:26.518Z,24.62
2023-02-05T11:52:02.394Z,24.57
2023-02-05T11:54:37.599Z,24.52
2023-02-05T11:57:27.476Z,24.51
2023-02-05T12:00:00.250Z,24.48
2023-02-05T12:02:42.010Z,24.48
2023-02-05T12:05:31.570Z,24.46
2023-02-05T12:08:10.100Z,24.45
2023-02-05T12:10:50.196Z,24.46
2023-02-05T12:13:45.583Z,24.44
2023-02-05T12:16:55.750Z,24.41
2023-02-05T12:19:36.673Z,24.40
2023-02-05T12:22:19.897Z,24.39
2023-02-05T12:25:11.674Z,24.39
2023-02-05T12:28:10.890Z,24.38
2023-02-05T12:31:03.994Z,24.35
2023-02-05T12:34:16.330Z,24.33
2023-02-05T12:37:16.901Z,24.31
2023-02-05T12:39:55.598Z,24.29
2023-02-05T12:42:37.099Z,24.30
2023-02-05T12:45:38.551Z,24.26
2023-02-05T12:48:35.716Z,24.26
2023-02-05T12:51:27.739Z,24.25
2023-02-05T12:54:21.897Z,24.24
2023-02-05T12:57:06.414Z,24.22
2023-02-05T12:59:44.747Z,24.24
2023-02-05T13:02:27.434Z,24.23
2023-02-05T13:05:15.702Z,24.21
2023-02-05T13:07:51.872Z,24.20
2023-02-05T13:11:12.690Z,24.17
2023-02-05T13:13:54.723Z,24.15
2023-02-05T13:16:38.223Z,24.13
2023-02-05T13:19:29.968Z,24.13
2023-02-05T13:22:23.675Z,24.11
2023-02-05T13:25:21.032Z,24.07
2023-02-05T13:28:20.587Z,24.06
2023-02-05T13:30:58.442Z,24.02
2023-02-05T13:33:30.021Z,24.01
2023-02-05T13:36:32.764Z,23.99
2023-02-05T13:39:34.553Z,23.98
2023-02-05T13:42:32.195Z,23.95
2023-02-05T13:45:59.215Z,23.91
2023-02-05T13:49:34.071Z,23.87
2023-02-05T13:52:37.793Z,23.84
2023-02-05T13:55:43.684Z,23.84
2023-02-05T13:58:24.773Z,23.84
2023-02-05T14:01:10.004Z,23.82
2023-02-05T14:03:56.316Z,23.82
2023-02-05T14:06:34.675Z,23.81
2023-02-05T14:09:12.996Z,23.81
2023-02-05T14:11:56.080Z,23.79
2023-02-05T14:14:35.448Z,23.78
2023-02-05T14:17:45.005Z,23.76
2023-02-05T14:20:40.965Z,23.71
2023-02-05T14:23:58.384Z,23.69
2023-02-05T14:30:53.794Z,23.61
2023-02-05T14:33:48.183Z,23.59
2023-02-05T14:36:39.732Z,23.58
2023-02-05T14:39:27.310Z,23.57
2023-02-05T14:42:29.665Z,23.56
2023-02-05T14:45:03.529Z,23.55
2023-02-05T14:47:37.914Z,23.56
2023-02-05T14:50:12.477Z,23.55
2023-02-05T14:52:54.443Z,23.55
2023-02-05T14:55:35.514Z,23.55
2023-02-05T14:58:12.168Z,23.53
2023-02-05T15:00:48.170Z,23.52
2023-02-05T15:03:33.103Z,23.50
2023-02-05T15:06:10.864Z,23.49
2023-02-05T15:08:57.940Z,23.48
2023-02-05T15:11:48.052Z,23.47
2023-02-05T15:14:44.972Z,23.47
2023-02-05T15:21:27.895Z,23.39
2023-02-05T15:24:15.432Z,23.38
2023-02-05T15:26:54.795Z,23.37
2023-02-05T15:29:32.277Z,23.38
2023-02-05T15:32:07.661Z,23.36
2023-02-05T15:35:28.944Z,23.35
2023-02-05T15:38:05.320Z,23.32
2023-02-05T15:40:44.261Z,23.31
2023-02-05T15:43:26.310Z,23.31
2023-02-05T15:46:04.340Z,23.30
2023-02-05T15:48:38.198Z,23.30
2023-02-05T15:51:25.563Z,23.29
2023-02-05T15:54:01.020Z,23.30
2023-02-05T15:56:40.307Z,23.29
2023-02-05T15:59:21.490Z,23.28
2023-02-05T16:02:01.745Z,23.27
2023-02-05T16:04:35.969Z,23.27
2023-02-05T16:07:21.397Z,23.27
2023-02-05T16:09:57.259Z,23.26
2023-02-05T16:12:30.846Z,23.25
2023-02-05T16:15:04.676Z,23.26
2023-02-05T16:17:44.721Z,23.26
2023-02-05T16:20:31.851Z,23.26
2023-02-05T16:23:09.755Z,23.25
2023-02-05T16:25:52.632Z,23.24
2023-02-05T16:28:36.940Z,23.24
2023-02-05T16:31:12.737Z,23.23
2023-02-05T16:33:58.181Z,23.22
2023-02-05T16:36:39.393Z,23.21
2023-02-05T16:39:25.138Z,23.20
2023-02-05T16:42:09.850Z,23.19
2023-02-05T16:44:52.274Z,23.19
2023-02-05T16:47:23.823Z,23.19
2023-02-05T16:49:55.281Z,23.18
2023-02-05T16:52:35.060Z,23.18
2023-02-05T16:55:31.911Z,23.16
2023-02-05T16:58:08.956Z,23.13
2023-02-05T17:00:41.768Z,23.12
2023-02-05T17:03:24.765Z,23.09
2023-02-05T17:06:02.938Z,23.08
2023-02-05T17:08:39.734Z,23.05
2023-02-05T17:11:35.691Z,23.03
2023-02-05T17:14:30.011Z,23.00
2023-02-05T17:17:21.052Z,22.97
2023-02-05T17:20:09.999Z,22.93
2023-02-05T17:22:40.231Z,22.90
2023-02-05T17:25:12.756Z,22.89
2023-02-05T17:27:43.719Z,22.87
2023-02-05T17:30:23.691Z,22.88
2023-02-05T17:32:55.879Z,22.86
2023-02-05T17:35:27.222Z,22.85
2023-02-05T17:37:58.068Z,22.85
2023-02-05T17:40:28.803Z,22.84
2023-02-05T17:43:00.413Z,22.84
2023-02-05T17:45:35.946Z,22.83
2023-02-05T17:48:09.457Z,22.82
2023-02-05T17:50:41.607Z,22.79
2023-02-05T17:53:14.700Z,22.76
2023-02-05T17:55:44.567Z,22.76
2023-02-05T17:58:15.666Z,22.73
2023-02-05T18:00:45.709Z,22.71
2023-02-05T18:03:18.020Z,22.69
2023-02-05T18:05:48.986Z,22.67
2023-02-05T18:08:19.812Z,22.66
2023-02-05T18:10:51.334Z,22.63
2023-02-05T18:13:28.428Z,22.61
2023-02-05T18:16:04.480Z,22.60
2023-02-05T18:18:39.677Z,22.60
2023-02-05T18:21:11.166Z,22.57
2023-02-05T18:23:41.875Z,22.56
2023-02-05T18:26:12.598Z,22.55
2023-02-05T18:28:43.022Z,22.52
2023-02-05T18:31:15.762Z,22.51
2023-02-05T18:33:51.988Z,22.49
2023-02-05T18:36:24.535Z,22.47
2023-02-05T18:38:55.408Z,22.45
2023-02-05T18:41:26.479Z,22.44
2023-02-05T18:43:57.864Z,22.43
2023-02-05T18:46:33.498Z,22.41
2023-02-05T18:49:07.018Z,22.41
2023-02-05T18:51:37.974Z,22.41
2023-02-05T18:54:09.536Z,22.41
2023-02-05T18:56:44.302Z,22.39
2023-02-05T18:59:21.558Z,22.41
2023-02-05T19:01:52.044Z,22.40
2023-02-05T19:04:25.413Z,22.39
2023-02-05T19:06:57.190Z,22.38
2023-02-05T19:09:29.959Z,22.37
2023-02-05T19:12:00.746Z,22.35
2023-02-05T19:14:32.337Z,22.34
2023-02-05T19:17:04.399Z,22.31
2023-02-05T19:19:37.962Z,22.29
2023-02-05T19:22:08.859Z,22.25
2023-02-05T19:24:41.567Z,22.24
2023-02-05T19:27:12.418Z,22.23
2023-02-05T19:29:43.795Z,22.22
2023-02-05T19:32:14.446Z,22.19
2023-02-05T19:34:47.055Z,22.20
2023-02-05T19:37:18.409Z,22.18
2023-02-05T19:39:49.802Z,22.17
2023-02-05T19:42:21.400Z,22.15
2023-02-05T19:44:52.250Z,22.15
2023-02-05T19:47:22.318Z,22.14
2023-02-05T19:49:54.581Z,22.14
2023-02-05T19:52:25.608Z,22.14
2023-02-05T19:54:56.099Z,22.14
2023-02-05T19:57:26.954Z,22.12
2023-02-05T19:59:58.375Z,22.12
2023-02-05T20:02:29.798Z,22.12
2023-02-05T20:05:03.337Z,22.11
2023-02-05T20:07:38.619Z,22.11
2023-02-05T20:10:10.969Z,22.09
2023-02-05T20:12:41.979Z,22.08
2023-02-05T20:15:14.092Z,22.07
2023-02-05T20:17:45.384Z,22.06
2023-02-05T20:20:32.691Z,22.04
2023-02-05T20:23:04.701Z,22.00
2023-02-05T20:25:35.472Z,21.98
2023-02-05T20:28:05.950Z,21.96
2023-02-05T20:30:53.706Z,21.94
2023-02-05T20:33:23.750Z,21.91
2023-02-05T20:35:56.418Z,21.91
2023-02-05T20:38:27.504Z,21.88
2023-02-05T20:41:00.023Z,21.87
2023-02-05T20:43:30.733Z,21.86
2023-02-05T20:46:07.297Z,21.85
2023-02-05T20:48:38.345Z,21.85
2023-02-05T20:51:14.833Z,21.85
2023-02-05T20:53:46.459Z,21.84
2023-02-05T20:56:21.388Z,21.84
2023-02-05T20:58:52.062Z,21.82
2023-02-05T21:01:25.324Z,21.81
2023-02-05T21:03:58.327Z,21.81
2023-02-05T21:06:33.920Z,21.80
2023-02-05T21:09:05.180Z,21.78
2023-02-05T21:11:36.619Z,21.78
2023-02-05T21:14:07.893Z,21.77
2023-02-05T21:16:40.842Z,21.75
2023-02-05T21:19:12.706Z,21.75
2023-02-05T21:21:44.563Z,21.75
2023-02-05T21:24:17.943Z,21.74
2023-02-05T21:26:50.730Z,21.73
2023-02-05T21:29:26.159Z,21.72
2023-02-05T21:31:58.089Z,21.73
2023-02-05T21:34:31.273Z,21.73
2023-02-05T21:37:03.490Z,21.73
2023-02-05T21:39:34.269Z,21.74
2023-02-05T21:42:05.158Z,21.72
2023-02-05T21:44:35.280Z,21.72
2023-02-05T21:47:05.587Z,21.72
2023-02-05T21:49:36.447Z,21.72
2023-02-05T21:52:09.348Z,21.73
2023-02-05T21:54:40.040Z,21.73
2023-02-05T21:57:14.658Z,21.73
2023-02-05T21:59:48.621Z,21.75
2023-02-05T22:02:19.858Z,21.73
2023-02-05T22:04:50.586Z,21.70
2023-02-05T22:07:22.915Z,21.70
2023-02-05T22:09:55.185Z,21.67
2023-02-05T22:12:25.660Z,21.66
2023-02-05T22:14:56.898Z,21.65
2023-02-05T22:17:26.997Z,21.64
2023-02-05T22:19:58.070Z,21.63
2023-02-05T22:22:31.458Z,21.63
2023-02-05T22:25:02.330Z,21.61
2023-02-05T22:27:32.886Z,21.62
2023-02-05T22:30:04.068Z,21.60
2023-02-05T22:32:34.778Z,21.60
2023-02-05T22:35:05.250Z,21.59
2023-02-05T22:37:37.680Z,21.59
2023-02-05T22:40:10.096Z,21.59
2023-02-05T22:42:40.737Z,21.59
2023-02-05T22:45:12.572Z,21.58
2023-02-05T22:47:42.661Z,21.57
2023-02-05T22:50:13.692Z,21.55
2023-02-05T22:52:46.185Z,21.56
2023-02-05T22:55:17.084Z,21.54
2023-02-05T22:57:48.232Z,21.52
2023-02-05T23:00:19.962Z,21.52
2023-02-05T23:02:51.292Z,21.50
2023-02-05T23:05:21.319Z,21.51
2023-02-05T23:07:55.636Z,21.51
2023-02-05T23:10:27.513Z,21.51
2023-02-05T23:13:00.215Z,21.51
2023-02-05T23:15:30.133Z,21.51
2023-02-05T23:18:01.631Z,21.50
2023-02-05T23:20:32.541Z,21.50
2023-02-05T23:23:04.838Z,21.50
2023-02-05T23:25:40.032Z,21.49
2023-02-05T23:28:09.967Z,21.49
2023-02-05T23:30:41.250Z,21.48
2023-02-05T23:33:11.648Z,21.48
2023-02-05T23:35:43.151Z,21.47
2023-02-05T23:38:15.894Z,21.48
2023-02-05T23:40:46.621Z,21.47
2023-02-05T23:43:17.899Z,21.46
2023-02-05T23:45:49.231Z,21.46
2023-02-05T23:48:20.787Z,21.45
2023-02-05T23:51:07.635Z,21.43
2023-02-05T23:53:40.979Z,21.41
2023-02-05T23:56:12.370Z,21.40
2023-02-05T23:58:43.088Z,21.39
